Barcelona, Brazil
Current Conditions -  °F | °C
As of 5:00 AM on Saturday 25 Oct 2014 (Local Time) from SBNT Reporting Station
Rain Showers Rain Showers  
Wind Chill: 24°   Ceiling: 1700
Heat Index: 24°   Visibility: 6mi
Dew Point: 21°   Wind: 10mph
Humidity: 83%   Direction: 130°SE
Pressure: NA   Gusts: NA
Location:  5.95°S, 35.93°W
Report Text: SBNT 250800Z 13009KT 9999 VCSH BKN017 FEW023TCU SCT070 24/21 Q1012 RESHRA
Loading
Personal Weather Stations






























Interactive Weather Map
Tropical Storm Tracking
New forecast layout! Learn more

10-Day Weather Forecast

Advertisements
Track Severe Weather on mobile